Time;durP1;ratioP1;P1;durP2;ratioP2;P2;SDS_P1;SDS_P2;PMS_P1;PMS_P2;Temp;Humidity;BMP_temperature;BMP_pressure;BME280_temperature;BME280_humidity;BME280_pressure;Samples;Min_cycle;Max_cycle;Signal;HPM_P1;HPM_P2
2023/12/19 00:01:20;;;;;;;;;;;7.90;99.90;;;;;;4999301;28;19927;-68
2023/12/19 00:03:46;;;;;;;;;;;7.80;99.90;;;;;;5035737;28;19954;-69
2023/12/19 00:06:12;;;;;;;;;;;7.80;99.90;;;;;;4996529;28;20390;-70
2023/12/19 00:08:38;;;;;;;;;;;7.80;99.90;;;;;;5015058;28;19931;-68
2023/12/19 00:11:04;;;;;;;;;;;7.90;99.90;;;;;;5003149;28;19933;-69
2023/12/19 00:13:30;;;;;;;;;;;7.90;99.90;;;;;;5035257;28;19932;-69
2023/12/19 00:15:56;;;;;;;;;;;7.90;99.90;;;;;;5002687;28;20051;-69
2023/12/19 00:18:22;;;;;;;;;;;7.90;99.90;;;;;;5026017;28;19924;-69
2023/12/19 00:20:52;;;;;;;;;;;7.90;99.90;;;;;;5010125;28;20993;-69
2023/12/19 00:23:18;;;;;;;;;;;7.90;99.90;;;;;;5031241;28;20591;-68
2023/12/19 00:25:44;;;;;;;;;;;7.90;99.90;;;;;;5028574;28;19935;-69
2023/12/19 00:28:10;;;;;;;;;;;7.90;99.90;;;;;;5003658;28;20265;-68
2023/12/19 00:30:36;;;;;;;;;;;7.90;99.90;;;;;;5040474;28;20429;-69
2023/12/19 00:33:02;;;;;;;;;;;7.90;99.90;;;;;;4990641;28;19924;-70
2023/12/19 00:35:28;;;;;;;;;;;7.90;99.90;;;;;;5011750;28;19928;-70
2023/12/19 00:37:54;;;;;;;;;;;7.80;99.90;;;;;;5031437;27;21075;-70
2023/12/19 00:40:20;;;;;;;;;;;7.90;99.90;;;;;;4995299;28;20414;-70
2023/12/19 00:42:46;;;;;;;;;;;7.90;99.90;;;;;;5013865;27;19923;-70
2023/12/19 00:45:12;;;;;;;;;;;7.90;99.90;;;;;;5031958;28;19931;-70
2023/12/19 00:47:39;;;;;;;;;;;7.90;99.90;;;;;;4998498;28;20295;-70
2023/12/19 00:50:05;;;;;;;;;;;7.90;99.90;;;;;;5033429;28;19924;-70
2023/12/19 00:52:31;;;;;;;;;;;7.90;99.90;;;;;;4996880;28;20418;-71
2023/12/19 00:54:57;;;;;;;;;;;7.90;99.90;;;;;;5027695;28;19936;-70
2023/12/19 00:57:23;;;;;;;;;;;7.80;99.90;;;;;;5011033;28;19924;-69
2023/12/19 00:59:49;;;;;;;;;;;7.80;99.90;;;;;;5027509;28;20553;-70
2023/12/19 01:02:15;;;;;;;;;;;7.90;99.90;;;;;;5002090;28;19975;-69
2023/12/19 01:04:41;;;;;;;;;;;7.90;99.90;;;;;;5033269;28;20449;-70
2023/12/19 01:07:07;;;;;;;;;;;7.80;99.90;;;;;;4998482;28;20068;-69
2023/12/19 01:09:33;;;;;;;;;;;7.80;99.90;;;;;;5021360;28;20586;-69
2023/12/19 01:11:59;;;;;;;;;;;7.90;99.90;;;;;;5003210;28;21757;-70
2023/12/19 01:14:24;;;;;;;;;;;7.80;99.90;;;;;;5034794;28;19998;-69
2023/12/19 01:16:50;;;;;;;;;;;7.80;99.90;;;;;;5004344;28;20015;-69
2023/12/19 01:19:16;;;;;;;;;;;7.90;99.90;;;;;;5029724;28;20426;-68
2023/12/19 01:21:42;;;;;;;;;;;7.80;99.90;;;;;;5004288;28;19924;-70
2023/12/19 01:24:08;;;;;;;;;;;7.80;99.90;;;;;;5036377;28;19958;-69
2023/12/19 01:26:34;;;;;;;;;;;7.80;99.90;;;;;;5008409;28;19931;-69
2023/12/19 01:29:00;;;;;;;;;;;7.80;99.90;;;;;;5033916;28;20479;-70
2023/12/19 01:31:26;;;;;;;;;;;7.90;99.90;;;;;;4994542;28;20557;-70
2023/12/19 01:33:52;;;;;;;;;;;7.90;99.90;;;;;;5018223;28;20991;-71
2023/12/19 01:36:18;;;;;;;;;;;7.90;99.90;;;;;;5004823;28;20038;-69
2023/12/19 01:38:44;;;;;;;;;;;7.90;99.90;;;;;;5041064;28;20426;-69
2023/12/19 01:41:10;;;;;;;;;;;7.90;99.90;;;;;;5001401;28;19929;-69
2023/12/19 01:43:36;;;;;;;;;;;7.90;99.90;;;;;;5036920;28;20405;-69
2023/12/19 01:46:02;;;;;;;;;;;7.90;99.90;;;;;;5001759;28;19932;-69
2023/12/19 01:48:28;;;;;;;;;;;8.00;99.90;;;;;;5040419;28;20805;-69
2023/12/19 01:50:54;;;;;;;;;;;7.90;99.90;;;;;;4997502;28;19929;-70
2023/12/19 01:53:21;;;;;;;;;;;7.90;99.90;;;;;;5027805;28;19939;-70
2023/12/19 01:55:48;;;;;;;;;;;7.90;99.90;;;;;;5015492;28;19928;-69
2023/12/19 01:58:14;;;;;;;;;;;7.90;99.90;;;;;;5041157;28;19961;-70
2023/12/19 02:00:40;;;;;;;;;;;7.90;99.90;;;;;;5028895;28;20548;-69
2023/12/19 02:03:06;;;;;;;;;;;7.90;99.90;;;;;;5022290;28;20015;-70
2023/12/19 02:05:32;;;;;;;;;;;7.90;99.90;;;;;;5026149;28;21091;-69
2023/12/19 02:07:58;;;;;;;;;;;7.90;99.90;;;;;;4975538;28;19924;-69
2023/12/19 02:10:25;;;;;;;;;;;7.90;99.90;;;;;;5026661;28;19924;-70
2023/12/19 02:12:52;;;;;;;;;;;7.90;99.90;;;;;;5010765;28;20641;-70
2023/12/19 02:15:18;;;;;;;;;;;7.90;99.90;;;;;;5026813;28;20748;-69
2023/12/19 02:17:44;;;;;;;;;;;8.00;99.90;;;;;;5012720;28;19928;-69
2023/12/19 02:20:10;;;;;;;;;;;8.00;99.90;;;;;;5028163;28;20397;-69
2023/12/19 02:22:35;;;;;;;;;;;8.00;99.90;;;;;;4978419;28;19925;-69
2023/12/19 02:25:01;;;;;;;;;;;7.90;99.90;;;;;;5026222;28;19970;-70
2023/12/19 02:27:27;;;;;;;;;;;8.00;99.90;;;;;;5013306;27;19961;-70
2023/12/19 02:29:53;;;;;;;;;;;7.90;99.90;;;;;;5030124;28;19932;-70
2023/12/19 02:32:19;;;;;;;;;;;7.90;99.90;;;;;;4994836;28;20025;-69
2023/12/19 02:34:45;;;;;;;;;;;7.90;99.90;;;;;;5029806;28;20386;-69
2023/12/19 02:37:11;;;;;;;;;;;7.90;99.90;;;;;;5006246;28;19928;-70
2023/12/19 02:39:37;;;;;;;;;;;7.90;99.90;;;;;;5036601;28;19931;-70
2023/12/19 02:42:04;;;;;;;;;;;7.90;99.90;;;;;;5014835;28;19962;-69
2023/12/19 02:44:30;;;;;;;;;;;7.90;99.90;;;;;;5036717;28;20485;-70
2023/12/19 02:46:55;;;;;;;;;;;7.90;99.90;;;;;;4988530;28;19943;-70
2023/12/19 02:49:21;;;;;;;;;;;7.90;99.90;;;;;;5027512;28;19924;-70
2023/12/19 02:51:47;;;;;;;;;;;7.90;99.90;;;;;;5004162;28;19924;-70
2023/12/19 02:54:13;;;;;;;;;;;7.90;99.90;;;;;;5020734;28;20007;-70
2023/12/19 02:56:39;;;;;;;;;;;7.90;99.90;;;;;;5008021;28;19928;-70
2023/12/19 02:59:05;;;;;;;;;;;7.80;99.90;;;;;;5014660;28;19924;-71
2023/12/19 03:01:31;;;;;;;;;;;7.90;99.90;;;;;;5008031;27;20881;-71
2023/12/19 03:03:57;;;;;;;;;;;7.90;99.90;;;;;;5044556;28;19935;-70
2023/12/19 03:06:23;;;;;;;;;;;7.90;99.90;;;;;;4995670;28;20334;-71
2023/12/19 03:08:49;;;;;;;;;;;7.80;99.90;;;;;;5004003;28;20061;-71
2023/12/19 03:11:14;;;;;;;;;;;7.90;99.90;;;;;;5000020;28;21066;-70
2023/12/19 03:13:40;;;;;;;;;;;7.90;99.90;;;;;;5035161;28;20044;-70
2023/12/19 03:16:07;;;;;;;;;;;7.80;99.90;;;;;;5000571;28;19935;-70
2023/12/19 03:18:33;;;;;;;;;;;7.80;99.90;;;;;;5037690;28;19931;-70
2023/12/19 03:20:58;;;;;;;;;;;7.80;99.90;;;;;;4998455;28;19925;-70
2023/12/19 03:23:25;;;;;;;;;;;7.80;99.90;;;;;;5036414;28;19924;-71
2023/12/19 03:25:51;;;;;;;;;;;7.80;99.90;;;;;;4983363;28;19948;-70
2023/12/19 03:28:17;;;;;;;;;;;7.80;99.90;;;;;;5036894;28;20272;-70
2023/12/19 03:30:43;;;;;;;;;;;7.80;99.90;;;;;;5026028;28;20017;-69
2023/12/19 03:33:09;;;;;;;;;;;7.80;99.90;;;;;;4996216;28;19931;-70
2023/12/19 03:35:35;;;;;;;;;;;7.70;99.90;;;;;;5052106;28;19946;-69
2023/12/19 03:38:01;;;;;;;;;;;7.80;99.90;;;;;;5028177;28;19943;-70
2023/12/19 03:40:27;;;;;;;;;;;7.80;99.90;;;;;;5056847;28;19923;-69
2023/12/19 03:42:53;;;;;;;;;;;7.80;99.90;;;;;;5027785;27;19928;-69
2023/12/19 03:45:18;;;;;;;;;;;7.80;99.90;;;;;;5035300;28;20629;-70
2023/12/19 03:47:44;;;;;;;;;;;7.80;99.90;;;;;;5002040;28;19962;-70
2023/12/19 03:50:10;;;;;;;;;;;7.80;99.90;;;;;;5053208;28;20404;-71
2023/12/19 03:52:36;;;;;;;;;;;7.80;99.90;;;;;;4999848;28;19924;-70
2023/12/19 03:55:03;;;;;;;;;;;7.70;99.90;;;;;;5043907;28;19928;-72
2023/12/19 03:57:29;;;;;;;;;;;7.80;99.90;;;;;;5014590;27;20788;-72
2023/12/19 03:59:55;;;;;;;;;;;7.70;99.90;;;;;;5032949;28;19925;-72
2023/12/19 04:02:21;;;;;;;;;;;7.80;99.90;;;;;;4983614;28;20022;-73
2023/12/19 04:04:47;;;;;;;;;;;7.80;99.90;;;;;;5023456;28;20953;-74
2023/12/19 04:07:13;;;;;;;;;;;7.70;99.90;;;;;;5018558;28;19927;-74
2023/12/19 04:09:40;;;;;;;;;;;7.80;99.90;;;;;;5039497;28;19936;-73
2023/12/19 04:12:06;;;;;;;;;;;7.80;99.90;;;;;;4976897;28;20482;-73
2023/12/19 04:14:32;;;;;;;;;;;7.70;99.90;;;;;;5019512;28;19938;-72
2023/12/19 04:16:59;;;;;;;;;;;7.80;99.90;;;;;;5000114;28;21627;-73
2023/12/19 04:19:25;;;;;;;;;;;7.70;99.90;;;;;;5036400;28;19935;-72
2023/12/19 04:21:51;;;;;;;;;;;7.70;99.90;;;;;;5004695;28;19931;-72
2023/12/19 04:24:17;;;;;;;;;;;7.80;99.90;;;;;;5035042;28;20020;-72
2023/12/19 04:26:43;;;;;;;;;;;7.70;99.90;;;;;;5007071;28;20390;-71
2023/12/19 04:29:09;;;;;;;;;;;7.80;99.90;;;;;;5036809;28;19950;-72
2023/12/19 04:31:35;;;;;;;;;;;7.70;99.90;;;;;;4993630;28;20031;-74
2023/12/19 04:34:02;;;;;;;;;;;7.70;99.90;;;;;;5030748;28;20379;-74
2023/12/19 04:36:29;;;;;;;;;;;7.70;99.90;;;;;;5003907;28;19939;-73
2023/12/19 04:38:55;;;;;;;;;;;7.70;99.90;;;;;;5029669;28;19935;-72
2023/12/19 04:41:21;;;;;;;;;;;7.70;99.90;;;;;;4992891;27;20517;-74
2023/12/19 04:43:47;;;;;;;;;;;7.70;99.90;;;;;;5025151;28;19930;-75
2023/12/19 04:46:13;;;;;;;;;;;7.60;99.90;;;;;;4994779;28;19939;-75
2023/12/19 04:48:40;;;;;;;;;;;7.60;99.90;;;;;;5015344;28;19951;-75
2023/12/19 04:51:06;;;;;;;;;;;7.60;99.90;;;;;;5002960;28;19942;-75
2023/12/19 04:53:32;;;;;;;;;;;7.60;99.90;;;;;;4999756;28;19928;-75
2023/12/19 04:55:58;;;;;;;;;;;7.60;99.90;;;;;;5001903;28;19932;-74
2023/12/19 04:58:24;;;;;;;;;;;7.60;99.90;;;;;;5052979;28;19928;-75
2023/12/19 05:00:51;;;;;;;;;;;7.60;99.90;;;;;;5006514;28;20046;-74
2023/12/19 05:03:17;;;;;;;;;;;7.60;99.90;;;;;;5010028;28;19931;-74
2023/12/19 05:05:43;;;;;;;;;;;7.60;99.90;;;;;;5029127;28;19924;-74
2023/12/19 05:08:10;;;;;;;;;;;7.60;99.90;;;;;;4984595;28;20572;-74
2023/12/19 05:10:36;;;;;;;;;;;7.60;99.90;;;;;;5031417;28;19951;-74
2023/12/19 05:13:03;;;;;;;;;;;7.60;99.90;;;;;;5023566;28;19927;-75
2023/12/19 05:15:29;;;;;;;;;;;7.60;99.90;;;;;;5030829;28;19935;-74
2023/12/19 05:17:55;;;;;;;;;;;7.60;99.90;;;;;;4963490;28;20028;-72
2023/12/19 05:20:21;;;;;;;;;;;7.70;99.90;;;;;;5016167;28;19935;-74
2023/12/19 05:22:47;;;;;;;;;;;7.60;99.90;;;;;;4999333;28;19928;-74
2023/12/19 05:25:13;;;;;;;;;;;7.60;99.90;;;;;;5014070;28;20250;-74
2023/12/19 05:27:43;;;;;;;;;;;7.60;99.90;;;;;;5029438;27;19931;-71
2023/12/19 05:30:10;;;;;;;;;;;7.60;99.90;;;;;;5030349;28;19924;-75
2023/12/19 05:32:36;;;;;;;;;;;7.60;99.90;;;;;;4997618;28;19924;-76
2023/12/19 05:35:02;;;;;;;;;;;7.60;99.90;;;;;;5034818;28;20373;-77
2023/12/19 05:37:28;;;;;;;;;;;7.60;99.90;;;;;;4998056;28;19946;-76
2023/12/19 05:39:55;;;;;;;;;;;7.60;99.90;;;;;;5030142;28;19928;-76
2023/12/19 05:42:21;;;;;;;;;;;7.60;99.90;;;;;;4992772;28;19923;-75
2023/12/19 05:44:47;;;;;;;;;;;7.70;99.90;;;;;;5054154;28;20205;-75
2023/12/19 05:47:13;;;;;;;;;;;7.70;99.90;;;;;;5002029;28;19924;-75
2023/12/19 05:49:39;;;;;;;;;;;7.70;99.90;;;;;;5027192;28;19924;-76
2023/12/19 05:52:05;;;;;;;;;;;7.70;99.90;;;;;;4989844;28;19928;-75
2023/12/19 05:54:31;;;;;;;;;;;7.70;99.90;;;;;;5021957;28;19951;-75
2023/12/19 05:56:57;;;;;;;;;;;7.70;99.90;;;;;;4982840;28;21053;-74
2023/12/19 05:59:23;;;;;;;;;;;7.80;99.90;;;;;;5012742;28;19928;-74
2023/12/19 06:01:48;;;;;;;;;;;7.80;99.90;;;;;;5004356;28;20516;-74
2023/12/19 06:04:14;;;;;;;;;;;7.90;99.90;;;;;;5037938;28;19928;-74
2023/12/19 06:06:44;;;;;;;;;;;7.80;99.90;;;;;;4989929;28;20902;-74
2023/12/19 06:09:11;;;;;;;;;;;7.80;99.90;;;;;;5017742;28;19928;-74
2023/12/19 06:11:37;;;;;;;;;;;7.80;99.90;;;;;;4996886;28;19924;-73
2023/12/19 06:14:09;;;;;;;;;;;7.90;99.90;;;;;;5017724;28;19963;-71
2023/12/19 06:16:35;;;;;;;;;;;7.90;99.90;;;;;;4983521;28;20879;-74
2023/12/19 06:19:01;;;;;;;;;;;7.80;99.90;;;;;;5035500;28;19931;-75
2023/12/19 06:21:28;;;;;;;;;;;7.90;99.90;;;;;;4997582;28;20761;-74
2023/12/19 06:23:54;;;;;;;;;;;7.90;99.90;;;;;;5024663;28;19951;-73
2023/12/19 06:26:19;;;;;;;;;;;7.80;99.90;;;;;;5006419;28;21026;-73
2023/12/19 06:28:45;;;;;;;;;;;7.90;99.90;;;;;;5046055;28;19924;-72
2023/12/19 06:31:11;;;;;;;;;;;7.80;99.90;;;;;;5000700;28;19928;-73
2023/12/19 06:33:37;;;;;;;;;;;7.90;99.90;;;;;;5034917;28;19924;-72
2023/12/19 06:36:03;;;;;;;;;;;7.80;99.90;;;;;;4982956;28;19928;-72
2023/12/19 06:38:29;;;;;;;;;;;7.90;99.90;;;;;;5006230;28;19934;-72
2023/12/19 06:40:55;;;;;;;;;;;7.90;99.90;;;;;;4994361;28;20093;-72
2023/12/19 06:43:21;;;;;;;;;;;7.90;99.90;;;;;;5024859;28;19931;-72
2023/12/19 06:45:47;;;;;;;;;;;7.90;99.90;;;;;;5014541;28;19977;-71
2023/12/19 06:48:13;;;;;;;;;;;7.90;99.90;;;;;;5011177;28;19943;-71
2023/12/19 06:50:39;;;;;;;;;;;7.90;99.90;;;;;;5026086;28;20478;-70
2023/12/19 06:53:05;;;;;;;;;;;8.00;99.90;;;;;;4979033;28;19924;-72
2023/12/19 06:55:31;;;;;;;;;;;7.90;99.90;;;;;;5029092;28;19928;-72
2023/12/19 06:57:57;;;;;;;;;;;7.90;99.90;;;;;;5001327;28;19976;-72
2023/12/19 07:00:23;;;;;;;;;;;7.90;99.90;;;;;;5022898;28;20526;-71
2023/12/19 07:02:49;;;;;;;;;;;7.90;99.90;;;;;;5020985;28;20056;-72
2023/12/19 07:05:15;;;;;;;;;;;7.90;99.90;;;;;;5026319;28;20450;-71
2023/12/19 07:07:42;;;;;;;;;;;7.90;99.90;;;;;;5015239;28;19942;-70
2023/12/19 07:10:08;;;;;;;;;;;7.90;99.90;;;;;;5022574;28;20490;-71
2023/12/19 07:12:36;;;;;;;;;;;8.00;99.90;;;;;;5000081;28;19963;-71
2023/12/19 07:15:04;;;;;;;;;;;7.90;99.90;;;;;;5023358;28;19928;-71
2023/12/19 07:17:30;;;;;;;;;;;7.90;99.90;;;;;;4991436;28;19928;-72
2023/12/19 07:19:56;;;;;;;;;;;8.00;99.90;;;;;;5007104;28;19978;-72
2023/12/19 07:22:22;;;;;;;;;;;7.90;99.90;;;;;;5003106;28;19939;-72
2023/12/19 07:24:48;;;;;;;;;;;8.00;99.90;;;;;;5021051;28;19925;-71
2023/12/19 07:27:13;;;;;;;;;;;7.90;99.90;;;;;;5011625;28;19980;-70
2023/12/19 07:29:39;;;;;;;;;;;8.00;99.90;;;;;;5024185;28;19924;-71
2023/12/19 07:32:06;;;;;;;;;;;8.00;99.90;;;;;;5001762;28;20134;-71
2023/12/19 07:34:32;;;;;;;;;;;8.00;99.90;;;;;;5023039;28;19940;-70
2023/12/19 07:36:57;;;;;;;;;;;8.00;99.90;;;;;;5007343;28;20034;-70
2023/12/19 07:39:23;;;;;;;;;;;8.00;99.90;;;;;;5031023;28;19924;-70
2023/12/19 07:41:49;;;;;;;;;;;8.00;99.90;;;;;;4999680;28;20405;-70
2023/12/19 07:44:16;;;;;;;;;;;8.00;99.90;;;;;;5008380;28;19935;-71
2023/12/19 07:46:42;;;;;;;;;;;8.10;99.90;;;;;;5003318;28;21032;-70
2023/12/19 07:49:09;;;;;;;;;;;8.00;99.90;;;;;;5024202;28;19924;-72
2023/12/19 07:51:35;;;;;;;;;;;8.00;99.90;;;;;;5001464;28;19924;-71
2023/12/19 07:54:01;;;;;;;;;;;8.10;99.90;;;;;;5013317;28;19931;-72
2023/12/19 07:56:27;;;;;;;;;;;8.10;99.90;;;;;;4997495;28;20013;-71
2023/12/19 07:58:53;;;;;;;;;;;8.00;99.90;;;;;;5041804;28;20391;-72
2023/12/19 08:01:19;;;;;;;;;;;8.10;99.90;;;;;;5009121;28;19925;-71
2023/12/19 08:03:45;;;;;;;;;;;8.10;99.90;;;;;;5009383;28;19931;-72
2023/12/19 08:06:11;;;;;;;;;;;8.10;99.90;;;;;;4999604;28;19924;-72
2023/12/19 08:08:37;;;;;;;;;;;8.10;99.90;;;;;;5019768;28;19931;-71
2023/12/19 08:11:03;;;;;;;;;;;8.10;99.90;;;;;;4998026;28;20556;-74
2023/12/19 08:13:29;;;;;;;;;;;8.10;99.90;;;;;;5017970;28;20404;-74
2023/12/19 08:15:55;;;;;;;;;;;8.10;99.90;;;;;;4981259;28;20125;-74
2023/12/19 08:18:21;;;;;;;;;;;8.20;99.90;;;;;;5040221;28;19931;-73
2023/12/19 08:20:47;;;;;;;;;;;8.20;99.90;;;;;;4997947;28;19931;-72
2023/12/19 08:23:13;;;;;;;;;;;8.20;99.90;;;;;;4974891;28;19928;-72
2023/12/19 08:25:41;;;;;;;;;;;8.20;99.90;;;;;;5051213;28;20007;-73
2023/12/19 08:28:08;;;;;;;;;;;8.20;99.90;;;;;;4994504;28;19927;-74
2023/12/19 08:30:34;;;;;;;;;;;8.20;99.90;;;;;;5023531;28;20465;-73
2023/12/19 08:33:03;;;;;;;;;;;8.20;99.90;;;;;;4974337;28;19928;-74
2023/12/19 08:35:32;;;;;;;;;;;8.20;99.90;;;;;;5030349;28;19932;-75
2023/12/19 08:37:58;;;;;;;;;;;8.30;99.90;;;;;;5006402;28;19938;-75
2023/12/19 08:40:24;;;;;;;;;;;8.20;99.90;;;;;;5028819;28;20338;-75
2023/12/19 08:42:50;;;;;;;;;;;8.30;99.90;;;;;;5001452;28;20002;-75
2023/12/19 08:45:19;;;;;;;;;;;8.30;99.90;;;;;;5029231;28;19944;-73
2023/12/19 08:47:46;;;;;;;;;;;8.30;99.90;;;;;;4999694;28;19923;-73
2023/12/19 08:50:12;;;;;;;;;;;8.30;99.90;;;;;;5008297;28;19924;-72
2023/12/19 08:52:42;;;;;;;;;;;8.30;99.90;;;;;;4995578;28;20636;-72
2023/12/19 08:55:10;;;;;;;;;;;8.40;99.90;;;;;;5042572;28;20872;-73
2023/12/19 08:57:40;;;;;;;;;;;8.30;99.90;;;;;;4981545;28;19935;-73
2023/12/19 09:00:06;;;;;;;;;;;8.40;99.90;;;;;;5031086;28;20257;-72
2023/12/19 09:02:32;;;;;;;;;;;8.40;99.90;;;;;;4980033;28;19931;-73
2023/12/19 09:04:58;;;;;;;;;;;8.40;99.90;;;;;;5023601;28;19924;-74
2023/12/19 09:07:24;;;;;;;;;;;8.50;99.90;;;;;;4983139;28;19952;-74
2023/12/19 09:09:54;;;;;;;;;;;8.50;99.90;;;;;;5025261;28;19924;-74
2023/12/19 09:12:20;;;;;;;;;;;8.50;99.90;;;;;;4996656;28;19924;-72
2023/12/19 09:14:46;;;;;;;;;;;8.50;99.90;;;;;;5021166;28;19924;-71
2023/12/19 09:17:12;;;;;;;;;;;8.50;99.90;;;;;;4997104;28;19943;-72
2023/12/19 09:19:38;;;;;;;;;;;8.50;99.90;;;;;;5026054;28;19925;-72
2023/12/19 09:22:04;;;;;;;;;;;8.50;99.90;;;;;;5000870;28;20006;-72
2023/12/19 09:24:30;;;;;;;;;;;8.50;99.90;;;;;;5027022;28;20506;-73
2023/12/19 09:26:57;;;;;;;;;;;8.60;99.90;;;;;;4997463;28;19923;-73
2023/12/19 09:29:25;;;;;;;;;;;8.60;99.90;;;;;;5030620;28;19924;-72
2023/12/19 09:31:51;;;;;;;;;;;8.60;99.90;;;;;;5000834;28;19994;-73
2023/12/19 09:34:18;;;;;;;;;;;8.60;99.90;;;;;;5030439;28;19935;-71
2023/12/19 09:36:44;;;;;;;;;;;8.60;99.90;;;;;;5009736;28;19932;-71
2023/12/19 09:39:14;;;;;;;;;;;8.60;99.90;;;;;;5032075;28;19931;-71
2023/12/19 09:41:42;;;;;;;;;;;8.60;99.90;;;;;;5008621;28;20912;-72
2023/12/19 09:44:09;;;;;;;;;;;8.60;99.90;;;;;;5042889;28;19924;-73
2023/12/19 09:46:35;;;;;;;;;;;8.70;99.90;;;;;;4991713;28;19928;-71
2023/12/19 09:49:02;;;;;;;;;;;8.60;99.90;;;;;;5025481;28;19928;-71
2023/12/19 09:51:32;;;;;;;;;;;8.70;99.90;;;;;;4997364;28;19936;-71
2023/12/19 09:54:00;;;;;;;;;;;8.70;99.90;;;;;;5028347;28;19932;-72
2023/12/19 09:56:26;;;;;;;;;;;8.70;99.90;;;;;;4989748;28;19955;-71
2023/12/19 09:58:53;;;;;;;;;;;8.70;99.90;;;;;;5016060;28;20374;-71
2023/12/19 10:01:19;;;;;;;;;;;8.70;99.90;;;;;;5000139;28;20872;-72
2023/12/19 10:03:45;;;;;;;;;;;8.70;99.90;;;;;;5025722;28;19967;-71
2023/12/19 10:06:11;;;;;;;;;;;8.70;99.90;;;;;;4981395;28;19931;-71
2023/12/19 10:08:43;;;;;;;;;;;8.80;99.90;;;;;;4995828;28;20413;-71
2023/12/19 10:11:17;;;;;;;;;;;8.80;99.90;;;;;;4994039;28;19940;-69
2023/12/19 10:13:43;;;;;;;;;;;8.80;99.90;;;;;;5008792;28;20659;-69
2023/12/19 10:16:11;;;;;;;;;;;8.80;99.90;;;;;;5003425;28;19949;-70
2023/12/19 10:18:37;;;;;;;;;;;8.80;99.90;;;;;;5011237;28;19924;-69
2023/12/19 10:21:04;;;;;;;;;;;8.80;99.90;;;;;;4994671;28;19924;-69
2023/12/19 10:23:34;;;;;;;;;;;8.90;99.90;;;;;;5025298;28;20897;-69
2023/12/19 10:26:00;;;;;;;;;;;8.80;99.90;;;;;;4999243;28;19924;-69
2023/12/19 10:28:26;;;;;;;;;;;8.90;99.90;;;;;;5049349;28;19927;-70
2023/12/19 10:31:12;;;;;;;;;;;8.90;99.90;;;;;;4989905;28;19924;-69
2023/12/19 10:33:45;;;;;;;;;;;8.90;99.90;;;;;;5018647;28;19924;-68
2023/12/19 10:36:22;;;;;;;;;;;8.90;99.90;;;;;;5001546;28;19936;-68
2023/12/19 10:38:48;;;;;;;;;;;9.00;99.90;;;;;;5046166;28;19924;-69
2023/12/19 10:41:18;;;;;;;;;;;9.00;99.90;;;;;;5003875;28;20488;-68
2023/12/19 10:43:44;;;;;;;;;;;9.00;99.90;;;;;;5046084;28;20616;-68
2023/12/19 10:46:12;;;;;;;;;;;9.00;99.90;;;;;;4997984;28;20294;-68
2023/12/19 10:48:38;;;;;;;;;;;9.00;99.90;;;;;;5032885;28;19931;-69
2023/12/19 10:51:07;;;;;;;;;;;8.90;99.90;;;;;;4992119;28;19960;-68
2023/12/19 10:53:33;;;;;;;;;;;9.00;99.90;;;;;;5020241;28;19928;-68
2023/12/19 10:56:00;;;;;;;;;;;8.90;99.90;;;;;;4994108;28;19931;-70
2023/12/19 10:58:26;;;;;;;;;;;9.00;99.90;;;;;;5023729;28;19924;-69
2023/12/19 11:00:52;;;;;;;;;;;9.00;99.90;;;;;;4998455;28;19924;-70
2023/12/19 11:03:37;;;;;;;;;;;9.00;99.90;;;;;;5049965;28;19931;-69
2023/12/19 11:06:07;;;;;;;;;;;9.00;99.90;;;;;;4990793;28;19924;-69
2023/12/19 11:08:36;;;;;;;;;;;9.00;99.90;;;;;;5019785;28;19924;-71
2023/12/19 11:11:03;;;;;;;;;;;9.00;99.90;;;;;;4994900;28;20016;-71
2023/12/19 11:13:31;;;;;;;;;;;9.00;99.90;;;;;;5038886;28;20903;-71
2023/12/19 11:16:03;;;;;;;;;;;9.00;99.90;;;;;;5000704;28;19924;-71
2023/12/19 11:18:32;;;;;;;;;;;9.00;99.90;;;;;;5033827;28;20382;-71
2023/12/19 11:21:00;;;;;;;;;;;9.00;99.90;;;;;;4994325;28;20004;-71
2023/12/19 11:23:44;;;;;;;;;;;9.00;99.90;;;;;;5021876;28;20532;-71
2023/12/19 11:26:17;;;;;;;;;;;9.00;99.90;;;;;;5000562;28;19925;-71
2023/12/19 11:28:43;;;;;;;;;;;9.00;99.90;;;;;;5040174;28;20342;-72
2023/12/19 11:31:31;;;;;;;;;;;9.00;99.90;;;;;;5000957;28;19997;-70
2023/12/19 11:33:59;;;;;;;;;;;8.90;99.90;;;;;;5041976;28;19935;-70
2023/12/19 11:36:25;;;;;;;;;;;9.00;99.90;;;;;;4999060;28;19986;-70
2023/12/19 11:39:10;;;;;;;;;;;9.00;99.90;;;;;;5022539;28;21071;-69
2023/12/19 11:41:39;;;;;;;;;;;9.00;99.90;;;;;;5001196;28;19928;-70
2023/12/19 11:44:05;;;;;;;;;;;8.90;99.90;;;;;;5031724;28;19928;-70
2023/12/19 11:46:31;;;;;;;;;;;9.00;99.90;;;;;;4999088;28;19966;-69
2023/12/19 11:48:57;;;;;;;;;;;8.90;99.90;;;;;;5044700;28;19935;-70
2023/12/19 11:51:42;;;;;;;;;;;8.90;99.90;;;;;;5003287;28;19931;-70
2023/12/19 11:54:10;;;;;;;;;;;9.00;99.90;;;;;;5049996;28;20303;-70
2023/12/19 11:56:38;;;;;;;;;;;9.00;99.90;;;;;;5006074;28;19928;-70
2023/12/19 11:59:04;;;;;;;;;;;9.00;99.90;;;;;;5000627;28;19923;-71
2023/12/19 12:01:37;;;;;;;;;;;9.00;99.90;;;;;;4996447;28;20223;-73
2023/12/19 12:04:04;;;;;;;;;;;9.10;99.90;;;;;;5022717;28;19931;-72
2023/12/19 12:06:30;;;;;;;;;;;9.00;99.90;;;;;;4989559;28;19931;-72
2023/12/19 12:08:56;;;;;;;;;;;9.00;99.90;;;;;;5014283;28;19923;-71
2023/12/19 12:11:22;;;;;;;;;;;9.00;99.90;;;;;;4992120;28;19935;-72
2023/12/19 12:14:02;;;;;;;;;;;9.00;99.90;;;;;;5017834;28;20417;-71
2023/12/19 12:16:36;;;;;;;;;;;9.00;99.90;;;;;;4993437;28;20436;-72
2023/12/19 12:19:16;;;;;;;;;;;9.10;99.90;;;;;;5021474;28;19932;-71
2023/12/19 12:21:45;;;;;;;;;;;9.10;99.90;;;;;;4997177;28;20500;-71
2023/12/19 12:24:25;;;;;;;;;;;9.00;99.90;;;;;;5029535;28;19935;-72
2023/12/19 12:26:51;;;;;;;;;;;9.00;99.90;;;;;;5003124;28;19939;-71
2023/12/19 12:29:18;;;;;;;;;;;9.10;99.90;;;;;;5044042;28;19928;-73
2023/12/19 12:31:45;;;;;;;;;;;9.10;99.90;;;;;;5005423;28;19939;-72
2023/12/19 12:34:10;;;;;;;;;;;9.10;99.90;;;;;;5034942;28;19927;-71
2023/12/19 12:36:36;;;;;;;;;;;9.00;99.90;;;;;;5008039;28;19927;-71
2023/12/19 12:39:04;;;;;;;;;;;9.10;99.90;;;;;;5017608;28;19931;-73
2023/12/19 12:41:30;;;;;;;;;;;9.10;99.90;;;;;;5007323;28;20430;-73
2023/12/19 12:43:56;;;;;;;;;;;9.10;99.90;;;;;;5005151;28;19923;-72
2023/12/19 12:46:24;;;;;;;;;;;9.10;99.90;;;;;;5001652;28;19991;-72
2023/12/19 12:48:53;;;;;;;;;;;9.10;99.90;;;;;;5021308;28;19924;-71
2023/12/19 12:51:20;;;;;;;;;;;9.10;99.90;;;;;;4985529;28;19996;-71
2023/12/19 12:53:54;;;;;;;;;;;9.10;99.90;;;;;;5032233;28;19950;-70
2023/12/19 12:56:20;;;;;;;;;;;9.10;99.90;;;;;;4993251;28;19928;-70
2023/12/19 12:58:46;;;;;;;;;;;9.10;99.90;;;;;;5022765;28;20344;-69
2023/12/19 13:01:13;;;;;;;;;;;9.10;99.90;;;;;;4991053;28;20435;-70
2023/12/19 13:03:39;;;;;;;;;;;9.10;99.90;;;;;;5029053;28;19924;-69
2023/12/19 13:06:07;;;;;;;;;;;9.20;99.90;;;;;;5008713;28;20038;-71
2023/12/19 13:08:34;;;;;;;;;;;9.10;99.90;;;;;;4997028;28;20620;-71
2023/12/19 13:11:09;;;;;;;;;;;9.10;99.90;;;;;;4991904;28;19947;-69
2023/12/19 13:13:35;;;;;;;;;;;9.10;99.90;;;;;;4997973;28;19935;-69
2023/12/19 13:16:02;;;;;;;;;;;9.10;99.90;;;;;;4994015;28;19924;-69
2023/12/19 13:18:28;;;;;;;;;;;9.10;99.90;;;;;;5022279;28;19927;-69
2023/12/19 13:20:57;;;;;;;;;;;9.10;99.90;;;;;;4989545;28;21079;-69
2023/12/19 13:23:22;;;;;;;;;;;9.10;99.90;;;;;;5008823;28;19924;-71
2023/12/19 13:25:48;;;;;;;;;;;9.10;99.90;;;;;;5021936;28;19947;-70
2023/12/19 13:28:14;;;;;;;;;;;9.10;99.90;;;;;;5024547;28;20366;-71
2023/12/19 13:30:43;;;;;;;;;;;9.10;99.90;;;;;;5039647;28;19924;-72
2023/12/19 13:33:09;;;;;;;;;;;9.10;99.90;;;;;;4991348;28;20419;-71
2023/12/19 13:35:35;;;;;;;;;;;9.10;99.90;;;;;;5025574;28;19927;-72
2023/12/19 13:38:02;;;;;;;;;;;9.10;99.90;;;;;;5006575;28;19978;-72
2023/12/19 13:40:28;;;;;;;;;;;9.10;99.90;;;;;;5025358;28;21621;-72
2023/12/19 13:42:54;;;;;;;;;;;9.10;99.90;;;;;;4997143;28;20017;-71
2023/12/19 13:45:20;;;;;;;;;;;9.10;99.90;;;;;;5024088;28;20004;-71
2023/12/19 13:47:46;;;;;;;;;;;9.10;99.90;;;;;;5009914;28;20042;-71
2023/12/19 13:50:12;;;;;;;;;;;9.20;99.90;;;;;;5042546;28;19932;-71
2023/12/19 13:52:38;;;;;;;;;;;9.10;99.90;;;;;;4994363;28;20179;-70
2023/12/19 13:55:05;;;;;;;;;;;9.20;99.90;;;;;;5042756;28;20703;-72
2023/12/19 13:57:31;;;;;;;;;;;9.20;99.90;;;;;;4996838;28;19936;-71
2023/12/19 13:59:57;;;;;;;;;;;9.20;99.90;;;;;;5022530;28;20307;-72
2023/12/19 14:02:23;;;;;;;;;;;9.20;99.90;;;;;;4977053;28;20663;-73
2023/12/19 14:04:49;;;;;;;;;;;9.20;99.90;;;;;;5028778;28;19931;-74
2023/12/19 14:07:18;;;;;;;;;;;9.20;99.90;;;;;;5007018;28;19939;-73
2023/12/19 14:09:44;;;;;;;;;;;9.20;99.90;;;;;;5038906;28;20739;-73
2023/12/19 14:12:11;;;;;;;;;;;9.20;99.90;;;;;;4983750;28;20429;-74
2023/12/19 14:14:38;;;;;;;;;;;9.20;99.90;;;;;;5001433;28;19931;-73
2023/12/19 14:17:05;;;;;;;;;;;9.20;99.90;;;;;;4978880;28;19939;-72
2023/12/19 14:19:35;;;;;;;;;;;9.20;99.90;;;;;;5021227;28;19924;-70
2023/12/19 14:22:01;;;;;;;;;;;9.20;99.90;;;;;;5000662;28;19959;-70
2023/12/19 14:24:28;;;;;;;;;;;9.20;99.90;;;;;;5032222;28;19924;-70
2023/12/19 14:26:54;;;;;;;;;;;9.20;99.90;;;;;;4992914;28;19924;-70
2023/12/19 14:29:20;;;;;;;;;;;9.10;99.90;;;;;;5027158;28;19958;-69